Time;durP1;ratioP1;P1;durP2;ratioP2;P2;SDS_P1;SDS_P2;PMS_P1;PMS_P2;Temp;Humidity;BMP_temperature;BMP_pressure;BME280_temperature;BME280_humidity;BME280_pressure;Samples;Min_cycle;Max_cycle;Signal;HPM_P1;HPM_P2
2022/12/23 00:01:51;;;;;;;12.13;7.28;;;;;;;5.75;100.00;97255.69;1731181;82;21106;-81
2022/12/23 00:04:18;;;;;;;11.05;5.17;;;;;;;5.69;100.00;97252.72;1731011;82;21012;-79
2022/12/23 00:06:45;;;;;;;7.92;5.47;;;;;;;5.68;100.00;97247.08;1730951;82;21063;-79
2022/12/23 00:09:12;;;;;;;7.10;4.12;;;;;;;5.70;100.00;97253.52;1730924;82;21016;-81
2022/12/23 00:15:04;;;;;;;6.97;3.85;;;;;;;5.68;100.00;97251.64;1731165;82;21790;-82
2022/12/23 00:16:53;;;;;;;5.28;3.60;;;;;;;5.61;100.00;97251.90;1731209;82;21024;-82
2022/12/23 00:19:20;;;;;;;9.03;4.58;;;;;;;5.59;100.00;97253.52;1731239;82;21004;-79
2022/12/23 00:21:47;;;;;;;8.98;5.28;;;;;;;5.55;100.00;97252.95;1731270;82;21012;-79
2022/12/23 00:24:14;;;;;;;11.83;6.87;;;;;;;5.52;100.00;97252.95;1730869;82;21746;-82
2022/12/23 00:26:41;;;;;;;7.30;4.12;;;;;;;5.49;100.00;97255.38;1760070;81;21440;-78
2022/12/23 00:29:08;;;;;;;8.95;4.97;;;;;;;5.47;100.00;97248.09;1762874;81;21005;-79
2022/12/23 00:31:34;;;;;;;8.50;3.87;;;;;;;5.44;100.00;97258.84;1763038;81;21071;-78
2022/12/23 00:34:01;;;;;;;4.70;3.37;;;;;;;5.41;100.00;97260.73;1762944;81;21012;-79
2022/12/23 00:36:29;;;;;;;6.45;4.05;;;;;;;5.40;100.00;97271.20;1763031;81;21198;-82
2022/12/23 00:44:27;;;;;;;5.60;3.33;;;;;;;5.30;100.00;97275.21;1762750;81;21444;-79
2022/12/23 00:46:54;;;;;;;7.55;4.65;;;;;;;5.26;100.00;97274.11;1763097;81;21102;-81
2022/12/23 00:52:10;;;;;;;5.17;3.08;;;;;;;5.16;100.00;97271.39;1751686;81;21424;-78
2022/12/23 00:54:37;;;;;;;4.45;3.00;;;;;;;5.13;100.00;97279.45;1750829;81;21061;-81
2022/12/23 00:57:03;;;;;;;4.90;2.77;;;;;;;5.18;100.00;97272.73;1731536;81;21070;-82
2022/12/23 00:59:30;;;;;;;3.50;2.55;;;;;;;5.13;100.00;97276.77;1730873;82;21008;-81
2022/12/23 01:07:28;;;;;;;3.80;2.25;;;;;;;4.98;100.00;97290.11;1730867;82;21007;-81
2022/12/23 01:09:55;;;;;;;5.47;3.92;;;;;;;4.93;100.00;97294.91;1730957;82;21006;-81
2022/12/23 01:12:22;;;;;;;5.83;4.92;;;;;;;4.89;100.00;97288.45;1731137;82;21563;-79
2022/12/23 01:14:49;;;;;;;8.05;5.28;;;;;;;4.86;100.00;97290.84;1738180;81;20952;-82
2022/12/23 01:17:16;;;;;;;4.83;2.77;;;;;;;4.85;100.00;97296.74;1761254;81;20991;-78
2022/12/23 01:19:43;;;;;;;4.87;2.62;;;;;;;4.85;100.00;97296.74;1761117;81;21374;-82
2022/12/23 01:22:09;;;;;;;4.03;2.70;;;;;;;4.77;100.00;97291.33;1761316;81;21003;-80
2022/12/23 01:24:36;;;;;;;5.55;3.83;;;;;;;4.82;100.00;97287.87;1760950;81;21570;-79
2022/12/23 01:27:03;;;;;;;4.75;2.90;;;;;;;4.76;100.00;97281.66;1761356;81;20996;-79
2022/12/23 01:29:30;;;;;;;4.97;2.52;;;;;;;4.77;100.00;97289.18;1760977;81;21015;-79
2022/12/23 01:31:57;;;;;;;4.78;2.30;;;;;;;4.72;100.00;97285.95;1761271;81;21463;-82
2022/12/23 01:34:24;;;;;;;3.85;2.30;;;;;;;4.76;100.00;97288.91;1761028;81;21034;-79
2022/12/23 01:36:51;;;;;;;7.72;2.95;;;;;;;4.72;100.00;97282.45;1761370;81;20960;-79
2022/12/23 01:39:18;;;;;;;5.05;2.83;;;;;;;4.70;100.00;97280.55;1760963;81;21089;-79
2022/12/23 01:44:59;;;;;;;5.37;3.05;;;;;;;4.63;100.00;97286.70;1761014;81;20987;-78
2022/12/23 01:47:44;;;;;;;3.70;2.72;;;;;;;4.62;100.00;97287.23;1761328;81;21503;-81
2022/12/23 01:50:35;;;;;;;6.42;3.92;;;;;;;4.58;100.00;97278.06;1724497;82;21091;-79
2022/12/23 01:53:15;;;;;;;5.80;3.55;;;;;;;4.59;100.00;97281.56;1730958;82;21377;-79
2022/12/23 01:55:47;;;;;;;4.55;2.80;;;;;;;4.58;100.00;97267.88;1743403;81;21014;-79
2022/12/23 01:58:24;;;;;;;6.00;3.35;;;;;;;4.58;100.00;97271.36;1761047;81;21071;-81
2022/12/23 02:03:42;;;;;;;5.97;3.30;;;;;;;4.57;100.00;97268.94;1761110;81;21071;-82
2022/12/23 02:09:27;;;;;;;12.63;11.33;;;;;;;4.54;100.00;97282.35;1736090;81;21023;-81
2022/12/23 02:12:31;;;;;;;10.23;7.58;;;;;;;4.59;100.00;97285.58;1761188;81;21082;-78
2022/12/23 02:18:30;;;;;;;5.60;3.67;;;;;;;4.53;100.00;97280.20;1761350;81;21011;-80
2022/12/23 02:21:11;;;;;;;7.05;5.03;;;;;;;4.49;100.00;97284.98;1760785;81;21019;-81
2022/12/23 02:23:52;;;;;;;4.33;2.98;;;;;;;4.51;100.00;97287.68;1761111;81;21004;-81
2022/12/23 02:26:43;;;;;;;3.90;2.08;;;;;;;4.44;100.00;97288.97;1760911;81;22104;-81
2022/12/23 02:29:53;;;;;;;3.45;1.85;;;;;;;4.48;100.00;97292.77;1761029;81;21459;-78
2022/12/23 02:32:43;;;;;;;5.62;3.05;;;;;;;4.58;100.00;97296.05;1761423;81;20987;-82
2022/12/23 02:35:46;;;;;;;6.00;4.20;;;;;;;4.58;100.00;97296.05;1761308;81;21027;-78
2022/12/23 02:38:30;;;;;;;6.53;3.75;;;;;;;4.61;100.00;97304.38;1761106;81;21020;-82
2022/12/23 02:41:20;;;;;;;5.58;2.65;;;;;;;4.55;100.00;97310.80;1761091;81;21070;-81
2022/12/23 02:43:50;;;;;;;6.08;4.10;;;;;;;4.55;100.00;97303.28;1740375;81;21074;-78
2022/12/23 02:46:43;;;;;;;6.70;4.92;;;;;;;4.50;100.00;97314.77;1760710;81;21448;-78
2022/12/23 02:49:18;;;;;;;8.50;4.55;;;;;;;4.52;100.00;97308.61;1751100;81;21122;-82
2022/12/23 02:51:49;;;;;;;6.37;4.20;;;;;;;4.54;100.00;97314.55;1759940;81;21063;-81
2022/12/23 02:54:21;;;;;;;5.78;3.00;;;;;;;4.57;100.00;97313.22;1761169;81;21031;-78
2022/12/23 02:56:49;;;;;;;6.08;3.35;;;;;;;4.62;100.00;97318.63;1734934;81;21031;-78
2022/12/23 02:59:20;;;;;;;6.92;4.60;;;;;;;4.65;100.00;97310.05;1730870;82;21024;-82
2022/12/23 03:01:47;;;;;;;5.35;3.52;;;;;;;4.64;100.00;97315.95;1731079;82;21075;-79
2022/12/23 03:04:14;;;;;;;5.65;3.42;;;;;;;4.66;100.00;97318.37;1730840;82;21079;-81
2022/12/23 03:06:44;;;;;;;7.40;4.55;;;;;;;4.69;100.00;97315.16;1731019;82;21536;-81
2022/12/23 03:09:25;;;;;;;4.58;2.70;;;;;;;4.73;100.00;97313.59;1730917;82;21036;-81
2022/12/23 03:12:04;;;;;;;7.33;3.72;;;;;;;4.76;100.00;97309.84;1730683;82;20997;-79
2022/12/23 03:14:48;;;;;;;3.98;3.15;;;;;;;4.74;100.00;97305.28;1731102;82;21739;-79
2022/12/23 03:17:32;;;;;;;7.17;2.87;;;;;;;4.76;100.00;97304.48;1731329;82;21012;-79
2022/12/23 03:20:29;;;;;;;5.03;2.67;;;;;;;4.75;100.00;97306.89;1730933;82;21063;-78
2022/12/23 03:23:26;;;;;;;4.45;2.22;;;;;;;4.77;100.00;97304.75;1730926;82;21012;-79
2022/12/23 03:26:02;;;;;;;4.42;2.15;;;;;;;4.80;100.00;97309.62;1731139;82;21023;-79
2022/12/23 03:28:53;;;;;;;3.47;2.33;;;;;;;4.81;100.00;97310.42;1731263;82;21266;-79
2022/12/23 03:31:24;;;;;;;4.72;3.33;;;;;;;4.80;100.00;97314.18;1729329;82;21015;-79
2022/12/23 03:33:59;;;;;;;4.25;3.10;;;;;;;4.79;100.00;97309.87;1731180;82;21026;-81
2022/12/23 03:36:34;;;;;;;4.50;2.90;;;;;;;4.79;100.00;97306.66;1730350;82;21015;-78
2022/12/23 03:39:01;;;;;;;3.90;3.22;;;;;;;4.77;100.00;97306.62;1729802;82;21460;-78
2022/12/23 03:41:35;;;;;;;9.13;7.08;;;;;;;4.71;100.00;97299.09;1731022;82;21524;-79
2022/12/23 03:44:05;;;;;;;3.45;2.52;;;;;;;4.70;100.00;97293.97;1731141;82;21421;-80
2022/12/23 03:46:37;;;;;;;5.20;3.25;;;;;;;4.71;100.00;97297.75;1702016;82;21091;-79
2022/12/23 03:49:12;;;;;;;4.37;3.08;;;;;;;4.70;100.00;97293.45;1747099;81;21017;-81
2022/12/23 03:51:50;;;;;;;2.17;1.85;;;;;;;4.68;100.00;97298.79;1757934;81;21084;-80
2022/12/23 03:54:22;;;;;;;2.10;1.50;;;;;;;4.67;100.00;97294.49;1745862;82;21268;-81
2022/12/23 03:56:55;;;;;;;3.65;2.17;;;;;;;4.68;100.00;97294.23;1760963;81;20990;-81
2022/12/23 03:59:26;;;;;;;4.22;2.85;;;;;;;4.65;100.00;97292.08;1731980;82;21459;-79
2022/12/23 04:02:27;;;;;;;2.72;1.82;;;;;;;4.67;100.00;97293.15;1751159;81;21014;-81
2022/12/23 04:05:08;;;;;;;6.65;3.22;;;;;;;4.69;100.00;97293.69;1732024;82;21046;-78
2022/12/23 04:08:10;;;;;;;4.00;2.35;;;;;;;4.72;100.00;97293.20;1751408;81;21525;-82
2022/12/23 04:10:37;;;;;;;6.10;4.62;;;;;;;4.70;100.00;97291.28;1732068;79;21454;-78
2022/12/23 04:13:04;;;;;;;6.87;3.67;;;;;;;4.67;100.00;97285.91;1751120;81;21038;-79
2022/12/23 04:15:31;;;;;;;6.33;3.33;;;;;;;4.67;100.00;97291.27;1732111;82;20999;-80
2022/12/23 04:17:58;;;;;;;4.28;2.85;;;;;;;4.64;100.00;97286.97;1758661;81;21051;-78
2022/12/23 04:20:25;;;;;;;5.97;2.35;;;;;;;4.63;100.00;97294.75;1760735;81;21723;-81
2022/12/23 04:22:52;;;;;;;3.95;2.17;;;;;;;4.61;100.00;97294.17;1760938;81;21420;-79
2022/12/23 04:25:19;;;;;;;12.75;5.92;;;;;;;4.58;100.00;97286.66;1760824;81;21078;-81
2022/12/23 04:27:46;;;;;;;10.32;5.53;;;;;;;4.55;100.00;97287.98;1760911;81;21489;-79
2022/12/23 04:30:12;;;;;;;8.60;5.10;;;;;;;4.51;100.00;97285.00;1760953;81;21074;-78
2022/12/23 04:32:40;;;;;;;7.20;4.78;;;;;;;4.46;100.00;97278.27;1760961;81;21062;-78
2022/12/23 04:35:08;;;;;;;6.97;4.53;;;;;;;4.41;100.00;97278.77;1760895;81;21003;-80
2022/12/23 04:37:35;;;;;;;9.58;4.87;;;;;;;4.33;100.00;97279.23;1761006;81;21052;-81
2022/12/23 04:40:03;;;;;;;10.53;6.55;;;;;;;4.28;100.00;97283.24;1760859;81;21012;-81
2022/12/23 04:42:30;;;;;;;11.25;8.53;;;;;;;4.23;100.00;97285.34;1760765;81;21096;-78
2022/12/23 04:44:57;;;;;;;12.63;8.20;;;;;;;4.17;100.00;97282.33;1760850;81;21479;-81
2022/12/23 04:47:24;;;;;;;15.08;9.60;;;;;;;4.08;100.00;97275.83;1760641;81;21453;-81
2022/12/23 04:49:51;;;;;;;13.35;8.55;;;;;;;3.94;100.00;97272.78;1732813;81;21000;-78
2022/12/23 04:52:18;;;;;;;19.57;13.83;;;;;;;3.81;100.00;97277.20;1730730;82;21016;-81
2022/12/23 04:54:45;;;;;;;14.38;9.18;;;;;;;3.71;100.00;97271.75;1730356;82;21464;-78
2022/12/23 04:57:12;;;;;;;15.98;9.23;;;;;;;3.64;100.00;97274.63;1749379;82;21015;-81
2022/12/23 04:59:39;;;;;;;15.58;11.15;;;;;;;3.61;100.00;97270.59;1749071;80;21015;-78
2022/12/23 05:02:06;;;;;;;25.37;13.80;;;;;;;3.63;100.00;97278.38;1749468;81;21016;-82
2022/12/23 05:04:33;;;;;;;21.07;16.48;;;;;;;3.63;100.00;97274.36;1748943;81;20999;-78
2022/12/23 05:07:00;;;;;;;20.68;14.83;;;;;;;3.56;100.00;97269.19;1749462;81;21504;-81
2022/12/23 05:09:26;;;;;;;25.43;16.85;;;;;;;3.48;100.00;97275.53;1749186;81;21003;-81
2022/12/23 05:11:53;;;;;;;26.48;17.02;;;;;;;3.39;100.00;97275.17;1749002;82;21014;-78
2022/12/23 05:14:20;;;;;;;26.93;16.42;;;;;;;3.33;100.00;97274.33;1749189;81;22212;-80
2022/12/23 05:16:47;;;;;;;32.05;20.88;;;;;;;3.26;100.00;97276.92;1749056;81;21007;-78
2022/12/23 05:19:14;;;;;;;28.90;17.25;;;;;;;3.21;100.00;97268.81;1749117;82;21079;-81
2022/12/23 05:21:41;;;;;;;33.98;19.85;;;;;;;3.14;100.00;97266.33;1719631;82;21170;-82
2022/12/23 05:24:08;;;;;;;37.78;21.57;;;;;;;3.10;100.00;97271.38;1749146;82;21007;-82
2022/12/23 05:26:35;;;;;;;34.80;22.87;;;;;;;3.03;100.00;97270.76;1749107;81;21026;-81
2022/12/23 05:29:02;;;;;;;37.40;21.87;;;;;;;2.96;100.00;97270.66;1749146;82;21015;-81
2022/12/23 05:31:29;;;;;;;36.93;28.87;;;;;;;2.94;100.00;97276.80;1748964;81;21423;-78
2022/12/23 05:33:55;;;;;;;42.27;25.95;;;;;;;2.86;100.00;97270.01;1748975;81;21035;-82
2022/12/23 05:36:22;;;;;;;30.20;21.35;;;;;;;2.79;100.00;97277.41;1748892;81;21007;-79
2022/12/23 05:38:49;;;;;;;31.10;19.80;;;;;;;2.69;100.00;97275.94;1749078;81;21692;-81
2022/12/23 05:41:16;;;;;;;30.35;18.20;;;;;;;2.56;100.00;97271.73;1749130;81;21038;-79
2022/12/23 05:43:43;;;;;;;34.88;21.15;;;;;;;2.54;100.00;97276.00;1719578;82;21003;-78
2022/12/23 05:46:11;;;;;;;35.68;21.37;;;;;;;2.53;100.00;97277.58;1749090;82;21022;-78
2022/12/23 05:48:37;;;;;;;31.27;20.88;;;;;;;2.55;100.00;97272.79;1762019;80;21009;-78
2022/12/23 05:51:04;;;;;;;28.77;20.08;;;;;;;2.55;100.00;97276.27;1780105;79;20952;-81
2022/12/23 05:53:31;;;;;;;31.20;21.25;;;;;;;2.58;100.00;97270.98;1780064;80;20996;-78
2022/12/23 05:56:00;;;;;;;30.82;20.88;;;;;;;2.63;100.00;97276.91;1755706;79;21070;-81
2022/12/23 05:58:27;;;;;;;28.95;20.10;;;;;;;2.65;100.00;97272.95;1679783;82;25836;-78
2022/12/23 06:00:54;;;;;;;27.62;19.70;;;;;;;2.65;100.00;97273.45;1739836;80;21582;-78
2022/12/23 06:03:21;;;;;;;33.35;21.77;;;;;;;2.65;100.00;97276.13;1767784;80;21573;-81
2022/12/23 06:05:51;;;;;;;45.67;26.82;;;;;;;2.66;100.00;97275.10;1752739;80;21003;-78
2022/12/23 06:08:18;;;;;;;43.80;22.40;;;;;;;2.67;100.00;97278.05;1780124;80;20992;-81
2022/12/23 06:10:46;;;;;;;37.58;21.95;;;;;;;2.65;100.00;97279.64;1768086;80;21579;-81
2022/12/23 06:13:13;;;;;;;41.28;24.50;;;;;;;2.64;100.00;97284.69;1778148;80;21462;-79
2022/12/23 06:15:39;;;;;;;49.90;27.67;;;;;;;2.63;100.00;97275.58;1783229;80;21061;-78
2022/12/23 06:18:06;;;;;;;46.98;27.30;;;;;;;2.57;100.00;97278.73;1789546;79;21485;-81
2022/12/23 06:20:33;;;;;;;56.70;35.08;;;;;;;2.61;100.00;97279.03;1781594;79;21013;-81
2022/12/23 06:23:01;;;;;;;59.58;35.48;;;;;;;2.67;100.00;97283.41;1788731;79;38937;-81
2022/12/23 06:25:28;;;;;;;55.63;33.40;;;;;;;2.71;100.00;97283.18;1753295;79;20994;-81
2022/12/23 06:27:55;;;;;;;55.08;33.25;;;;;;;2.66;100.00;97272.42;1762806;80;21023;-79
2022/12/23 06:30:22;;;;;;;53.05;31.30;;;;;;;2.60;100.00;97270.20;1761745;80;21080;-78
2022/12/23 06:32:49;;;;;;;147.53;73.22;;;;;;;2.51;100.00;97276.50;1745851;82;22181;-78
2022/12/23 06:35:16;;;;;;;139.68;66.82;;;;;;;2.52;100.00;97279.45;1768673;81;21016;-81
2022/12/23 06:37:43;;;;;;;54.90;32.78;;;;;;;2.53;100.00;97281.59;1751888;81;21519;-81
2022/12/23 06:40:11;;;;;;;52.53;29.65;;;;;;;2.41;100.00;97273.69;1769668;81;21004;-78
2022/12/23 06:42:38;;;;;;;44.80;32.30;;;;;;;2.43;100.00;97272.91;1773154;80;21479;-81
2022/12/23 06:45:07;;;;;;;54.85;29.67;;;;;;;2.44;100.00;97271.84;1773175;80;21317;-78
2022/12/23 06:47:33;;;;;;;60.60;35.33;;;;;;;2.48;100.00;97278.34;1773132;80;21723;-78
2022/12/23 06:50:00;;;;;;;57.35;34.15;;;;;;;2.50;100.00;97284.24;1768067;80;20996;-82
2022/12/23 06:52:27;;;;;;;34.03;21.57;;;;;;;2.54;100.00;97272.52;1744906;82;21032;-81
2022/12/23 06:54:54;;;;;;;45.90;31.42;;;;;;;2.60;100.00;97276.08;1756587;81;21031;-79
2022/12/23 06:57:21;;;;;;;62.20;29.60;;;;;;;2.60;100.00;97273.41;1748486;81;21571;-81
2022/12/23 06:59:48;;;;;;;61.35;34.88;;;;;;;2.54;100.00;97274.66;1733972;82;21082;-78
2022/12/23 07:02:15;;;;;;;108.52;49.83;;;;;;;2.57;100.00;97275.25;1748609;81;21031;-81
2022/12/23 07:04:42;;;;;;;98.47;52.43;;;;;;;2.58;100.00;97278.20;1747603;81;21055;-81
2022/12/23 07:07:09;;;;;;;78.47;42.73;;;;;;;2.62;100.00;97284.12;1738011;81;21512;-79
2022/12/23 07:09:36;;;;;;;69.55;43.92;;;;;;;2.64;100.00;97270.50;1733811;82;21030;-78
2022/12/23 07:12:03;;;;;;;86.72;50.52;;;;;;;2.46;100.00;97275.08;1733729;82;21002;-78
2022/12/23 07:14:30;;;;;;;57.08;35.35;;;;;;;2.39;100.00;97269.61;1733652;82;21031;-78
2022/12/23 07:16:57;;;;;;;51.35;34.33;;;;;;;2.26;100.00;97266.23;1733831;82;21495;-78
2022/12/23 07:19:24;;;;;;;48.65;32.95;;;;;;;2.16;100.00;97274.64;1733441;82;21014;-78
2022/12/23 07:21:51;;;;;;;76.55;52.40;;;;;;;2.18;100.00;97274.67;1746632;81;21066;-81
2022/12/23 07:24:18;;;;;;;73.78;51.73;;;;;;;2.17;100.00;97267.70;1764109;81;21019;-78
2022/12/23 07:26:44;;;;;;;125.95;65.22;;;;;;;2.23;100.00;97265.40;1764013;81;20992;-80
2022/12/23 07:29:11;;;;;;;67.35;39.25;;;;;;;2.30;100.00;97263.88;1754911;81;21102;-80
2022/12/23 07:31:38;;;;;;;48.87;29.15;;;;;;;2.39;100.00;97262.93;1738061;81;21091;-78
2022/12/23 07:34:05;;;;;;;73.22;42.33;;;;;;;2.39;100.00;97253.57;1733654;82;21547;-78
2022/12/23 07:36:32;;;;;;;33.13;19.98;;;;;;;2.43;100.00;97250.17;1743505;81;21031;-78
2022/12/23 07:38:59;;;;;;;32.13;20.65;;;;;;;2.51;100.00;97247.08;1747033;81;22033;-78
2022/12/23 07:41:26;;;;;;;55.78;35.00;;;;;;;2.51;100.00;97251.09;1747701;81;21109;-81
2022/12/23 07:43:53;;;;;;;171.85;88.70;;;;;;;2.60;100.00;97250.14;1752512;81;20976;-78
2022/12/23 07:46:20;;;;;;;164.18;89.10;;;;;;;2.59;100.00;97255.21;1740304;81;21136;-78
2022/12/23 07:48:47;;;;;;;107.55;61.60;;;;;;;2.60;100.00;97252.81;1740306;81;21546;-81
2022/12/23 07:51:14;;;;;;;51.05;34.55;;;;;;;2.65;100.00;97258.74;1730881;82;21050;-80
2022/12/23 07:53:41;;;;;;;52.48;38.23;;;;;;;2.66;100.00;97259.05;1744919;81;21027;-78
2022/12/23 07:56:08;;;;;;;32.15;21.62;;;;;;;2.71;100.00;97255.89;1743240;81;21035;-81
2022/12/23 07:58:34;;;;;;;37.73;23.83;;;;;;;2.79;100.00;97260.01;1746954;80;21447;-78
2022/12/23 08:01:04;;;;;;;41.55;25.88;;;;;;;2.73;100.00;97263.14;1787499;80;21023;-81
2022/12/23 08:03:30;;;;;;;54.08;32.85;;;;;;;2.72;100.00;97269.55;1770576;80;21051;-81
2022/12/23 08:06:02;;;;;;;46.50;27.98;;;;;;;2.76;100.00;97268.02;1756785;81;21047;-82
2022/12/23 08:08:29;;;;;;;37.53;22.32;;;;;;;2.79;100.00;97270.18;1761234;81;21031;-82
2022/12/23 08:11:02;;;;;;;33.70;24.77;;;;;;;2.76;100.00;97261.86;1744410;81;21145;-79
2022/12/23 08:13:31;;;;;;;40.60;27.17;;;;;;;2.73;100.00;97259.13;1749582;81;21203;-81
2022/12/23 08:15:59;;;;;;;59.25;33.42;;;;;;;2.86;100.00;97259.30;1759088;81;21557;-80
2022/12/23 08:18:26;;;;;;;52.67;32.35;;;;;;;2.89;100.00;97263.34;1752175;81;21557;-81
2022/12/23 08:21:03;;;;;;;58.55;32.93;;;;;;;2.94;100.00;97274.13;1730146;81;21077;-81
2022/12/23 08:23:30;;;;;;;59.33;32.85;;;;;;;2.99;100.00;97262.96;1751366;81;21110;-81
2022/12/23 08:26:06;;;;;;;68.75;42.60;;;;;;;3.08;100.00;97262.80;1754666;81;21732;-81
2022/12/23 08:28:34;;;;;;;62.13;38.17;;;;;;;3.15;100.00;97266.60;1747419;81;21087;-81
2022/12/23 08:31:14;;;;;;;84.50;51.53;;;;;;;3.16;100.00;97268.22;1738385;81;21074;-81
2022/12/23 08:33:43;;;;;;;79.40;48.65;;;;;;;3.22;100.00;97269.90;1733879;82;21022;-81
2022/12/23 08:36:15;;;;;;;159.97;79.50;;;;;;;3.22;100.00;97269.90;1705713;82;22099;-79
2022/12/23 08:38:42;;;;;;;127.82;57.95;;;;;;;3.25;100.00;97273.97;1751866;81;21586;-81
2022/12/23 08:41:11;;;;;;;116.12;62.83;;;;;;;3.19;100.00;97271.75;1733829;82;21066;-78
2022/12/23 08:43:38;;;;;;;221.05;153.57;;;;;;;3.17;100.00;97280.57;1733957;82;21051;-81
2022/12/23 08:46:05;;;;;;;157.25;74.40;;;;;;;3.16;100.00;97282.13;1746192;81;21031;-79
2022/12/23 08:48:33;;;;;;;108.52;55.98;;;;;;;3.20;100.00;97274.70;1752783;81;21488;-78
2022/12/23 08:51:08;;;;;;;60.17;33.70;;;;;;;3.27;100.00;97274.52;1734135;82;21062;-82
2022/12/23 08:53:36;;;;;;;90.15;47.40;;;;;;;3.31;100.00;97271.07;1733812;82;21109;-78
2022/12/23 08:56:06;;;;;;;78.45;47.08;;;;;;;3.40;100.00;97272.24;1750876;81;21031;-78
2022/12/23 08:58:40;;;;;;;68.40;39.90;;;;;;;3.44;100.00;97263.19;1764283;81;20996;-78
2022/12/23 09:01:09;;;;;;;66.60;35.60;;;;;;;3.60;100.00;97267.64;1731692;81;21479;-78
2022/12/23 09:03:36;;;;;;;93.92;65.78;;;;;;;3.78;100.00;97251.73;1760494;81;20999;-79
2022/12/23 09:06:05;;;;;;;100.07;58.63;;;;;;;3.79;100.00;97254.69;1750393;81;21595;-78
2022/12/23 09:08:32;;;;;;;308.63;151.93;;;;;;;3.96;100.00;97255.37;1740948;81;21479;-78
2022/12/23 09:11:00;;;;;;;170.80;85.77;;;;;;;4.02;100.00;97248.19;1743614;81;21035;-78
2022/12/23 09:13:27;;;;;;;443.43;219.37;;;;;;;4.24;100.00;97238.67;1759356;81;21074;-78
2022/12/23 09:15:53;;;;;;;321.65;149.97;;;;;;;4.34;100.00;97233.38;1741399;80;21015;-81
2022/12/23 09:18:20;;;;;;;169.02;83.47;;;;;;;4.58;100.00;97240.50;1750425;81;21020;-81
2022/12/23 09:20:47;;;;;;;79.12;44.42;;;;;;;4.70;100.00;97234.92;1754320;81;21451;-81
2022/12/23 09:23:14;;;;;;;132.10;66.42;;;;;;;4.70;100.00;97232.23;1735793;81;20972;-78
2022/12/23 09:25:41;;;;;;;221.32;111.37;;;;;;;4.82;100.00;97238.22;1738446;81;21030;-78
2022/12/23 09:28:08;;;;;;;168.50;86.55;;;;;;;4.96;100.00;97235.88;1750222;81;21003;-81
2022/12/23 09:30:35;;;;;;;129.60;67.00;;;;;;;5.01;100.00;97236.68;1720791;81;21543;-81
2022/12/23 09:33:02;;;;;;;376.50;200.25;;;;;;;5.10;100.00;97241.01;1753943;81;21034;-79
2022/12/23 09:35:29;;;;;;;306.68;147.70;;;;;;;5.21;100.00;97237.81;1758648;81;21347;-81
2022/12/23 09:37:56;;;;;;;353.07;163.72;;;;;;;5.17;100.00;97232.17;1742347;81;21058;-81
2022/12/23 09:40:23;;;;;;;393.70;179.12;;;;;;;5.16;100.00;97229.76;1743445;81;21070;-83
2022/12/23 09:42:58;;;;;;;87.42;49.58;;;;;;;5.12;100.00;97227.31;1739820;81;21506;-79
2022/12/23 09:45:42;;;;;;;117.47;61.10;;;;;;;5.16;100.00;97224.39;1755653;81;21304;-79
2022/12/23 09:48:14;;;;;;;100.72;56.92;;;;;;;5.08;100.00;97217.11;1748866;81;21066;-78
2022/12/23 09:50:41;;;;;;;61.40;36.80;;;;;;;5.11;100.00;97210.39;1763303;81;21011;-78
2022/12/23 09:53:18;;;;;;;124.97;75.40;;;;;;;5.10;100.00;97202.07;1755884;81;20996;-79
2022/12/23 09:56:10;;;;;;;82.92;56.73;;;;;;;4.99;100.00;97199.89;1732932;81;20968;-78
2022/12/23 09:58:54;;;;;;;87.60;49.20;;;;;;;5.05;100.00;97200.19;1755803;81;21463;-82
2022/12/23 10:01:39;;;;;;;122.22;65.32;;;;;;;5.08;100.00;97189.45;1759886;81;21069;-79
2022/12/23 10:04:23;;;;;;;98.10;57.80;;;;;;;5.03;100.00;97184.86;1752456;81;21050;-82
2022/12/23 10:06:56;;;;;;;110.20;63.45;;;;;;;5.08;100.00;97182.20;1763801;81;21027;-82
2022/12/23 10:09:23;;;;;;;108.25;64.07;;;;;;;5.18;100.00;97177.92;1751457;81;21566;-79
2022/12/23 10:11:52;;;;;;;103.67;60.95;;;;;;;5.35;100.00;97174.46;1758672;81;21015;-81
2022/12/23 10:14:25;;;;;;;82.57;52.48;;;;;;;5.56;100.00;97165.37;1738457;81;21058;-81
2022/12/23 10:16:56;;;;;;;68.72;46.00;;;;;;;5.83;100.00;97163.75;1748816;81;21030;-79
2022/12/23 10:19:41;;;;;;;74.75;45.67;;;;;;;6.03;100.00;97159.45;1742121;81;21504;-79
2022/12/23 10:22:29;;;;;;;82.85;51.83;;;;;;;6.15;100.00;97158.11;1739967;81;21538;-82
2022/12/23 10:24:56;;;;;;;80.25;50.58;;;;;;;6.18;100.00;97148.67;1723186;81;21471;-81
2022/12/23 10:27:33;;;;;;;100.00;55.78;;;;;;;6.20;100.00;97150.01;1715224;81;21114;-79
2022/12/23 10:30:13;;;;;;;80.05;50.80;;;;;;;6.30;100.00;97149.17;1743766;81;21516;-82
2022/12/23 10:32:58;;;;;;;80.07;51.48;;;;;;;6.35;100.00;97147.83;1744729;81;21058;-79
2022/12/23 10:36:03;;;;;;;73.55;48.70;;;;;;;6.41;100.00;97150.78;1739632;81;21067;-81
2022/12/23 10:38:47;;;;;;;80.77;50.17;;;;;;;6.41;100.00;97149.44;1742738;81;21050;-82
2022/12/23 10:41:51;;;;;;;74.45;47.65;;;;;;;6.41;100.00;97153.98;1737171;81;21020;-79
2022/12/23 10:44:47;;;;;;;123.33;69.47;;;;;;;6.38;100.00;97149.96;1733766;81;20941;-79
2022/12/23 10:47:22;;;;;;;92.70;56.20;;;;;;;6.15;100.00;97148.69;1766869;80;20860;-82
2022/12/23 10:50:21;;;;;;;92.82;58.80;;;;;;;6.11;100.00;97146.27;1756219;81;20954;-82
2022/12/23 10:52:48;;;;;;;89.60;55.92;;;;;;;6.03;100.00;97150.05;1736190;80;21528;-82
2022/12/23 10:55:24;;;;;;;83.42;55.38;;;;;;;6.03;100.00;97150.05;1741020;80;21026;-79
2022/12/23 10:57:51;;;;;;;82.08;56.28;;;;;;;6.07;100.00;97147.09;1749684;80;21065;-78
2022/12/23 11:00:21;;;;;;;86.82;56.08;;;;;;;6.05;100.00;97148.69;1736567;80;21054;-79
2022/12/23 11:03:22;;;;;;;119.45;73.42;;;;;;;6.05;100.00;97154.60;1722364;81;21030;-82
2022/12/23 11:05:51;;;;;;;115.47;68.35;;;;;;;6.03;100.00;97151.39;1738310;81;21039;-82
2022/12/23 11:08:19;;;;;;;116.57;72.27;;;;;;;6.03;100.00;97148.16;1749082;80;21003;-81
2022/12/23 11:10:46;;;;;;;142.05;97.12;;;;;;;5.98;100.00;97155.41;1755100;80;21082;-79
2022/12/23 11:13:36;;;;;;;123.05;80.67;;;;;;;6.03;100.00;97152.73;1730889;81;21845;-81
2022/12/23 11:16:24;;;;;;;112.62;74.72;;;;;;;6.04;100.00;97148.42;1747875;80;21488;-78
2022/12/23 11:19:04;;;;;;;;;;;;;;;6.01;100.00;97146.28;1738668;81;21028;-81
2022/12/23 11:21:31;;;;;;;127.27;71.57;;;;;;;5.97;100.00;97142.51;1753262;80;20516;-81
2022/12/23 11:24:18;;;;;;;111.28;69.27;;;;;;;5.96;100.00;97146.82;1756309;80;21602;-81
2022/12/23 11:26:46;;;;;;;121.10;68.95;;;;;;;5.93;100.00;97144.95;1748682;79;21133;-81
2022/12/23 11:29:21;;;;;;;76.07;48.95;;;;;;;5.91;100.00;97142.27;1749189;79;21023;-78
2022/12/23 11:31:48;;;;;;;137.85;84.52;;;;;;;5.95;100.00;97144.67;1743210;79;21048;-81
2022/12/23 11:34:17;;;;;;;77.50;48.50;;;;;;;6.03;100.00;97144.66;1747310;80;21043;-79
2022/12/23 11:36:54;;;;;;;55.50;35.63;;;;;;;6.09;100.00;97143.59;1745424;80;21481;-81
2022/12/23 11:39:27;;;;;;;49.33;28.30;;;;;;;6.15;100.00;97145.17;1740731;81;21079;-82
2022/12/23 11:42:05;;;;;;;39.78;25.60;;;;;;;6.26;100.00;97142.74;1743951;80;21507;-81
2022/12/23 11:44:44;;;;;;;26.57;14.05;;;;;;;6.34;100.00;97136.00;1749473;80;21011;-81
2022/12/23 11:47:37;;;;;;;27.15;18.52;;;;;;;6.49;100.00;97130.03;1743071;80;21360;-81
2022/12/23 11:50:21;;;;;;;31.07;20.95;;;;;;;6.43;100.00;97138.39;1696558;83;21040;-80
2022/12/23 11:52:53;;;;;;;40.65;26.40;;;;;;;6.45;100.00;97141.61;1757556;80;21207;-81
2022/12/23 11:55:31;;;;;;;37.67;23.27;;;;;;;6.46;100.00;97149.41;1754920;81;21078;-81
2022/12/23 11:57:59;;;;;;;39.55;24.82;;;;;;;6.47;100.00;97150.20;1753927;81;21053;-79
2022/12/23 12:00:33;;;;;;;42.45;26.30;;;;;;;6.44;100.00;97152.11;1750817;81;21033;-78
2022/12/23 12:02:59;;;;;;;42.55;25.57;;;;;;;6.46;100.00;97145.36;1733522;80;21056;-81
2022/12/23 12:05:37;;;;;;;43.63;27.32;;;;;;;6.46;100.00;97147.25;1768972;80;21091;-82
2022/12/23 12:08:14;;;;;;;56.48;31.60;;;;;;;6.49;100.00;97151.56;1758635;81;21669;-82
2022/12/23 12:10:41;;;;;;;436.40;215.57;;;;;;;6.56;100.00;97150.45;1746191;81;21010;-82
2022/12/23 12:13:24;;;;;;;109.57;57.78;;;;;;;6.63;100.00;97146.92;1760297;81;21312;-81